createdAt,value
2018-02-04T00:00:09.870Z,0.00
2018-02-04T00:02:39.960Z,0.00
2018-02-04T00:05:07.734Z,-0.10
2018-02-04T00:07:36.307Z,-0.20
2018-02-04T00:10:06.361Z,-0.30
2018-02-04T00:12:34.938Z,-0.30
2018-02-04T00:15:04.193Z,-0.30
2018-02-04T00:17:32.219Z,-0.30
2018-02-04T00:20:00.473Z,-0.30
2018-02-04T00:22:38.145Z,-0.10
2018-02-04T00:25:07.396Z,-0.20
2018-02-04T00:27:35.086Z,-0.20
2018-02-04T00:30:03.880Z,-0.30
2018-02-04T00:32:34.484Z,-0.30
2018-02-04T00:35:02.831Z,-0.30
2018-02-04T00:37:30.564Z,-0.30
2018-02-04T00:39:58.536Z,-0.40
2018-02-04T00:42:26.294Z,-0.40
2018-02-04T00:44:54.693Z,-0.40
2018-02-04T00:47:23.837Z,-0.30
2018-02-04T00:49:52.329Z,-0.40
2018-02-04T00:52:19.875Z,-0.30
2018-02-04T00:54:47.666Z,-0.20
2018-02-04T00:57:16.207Z,-0.20
2018-02-04T00:59:45.073Z,-0.20
2018-02-04T01:02:13.639Z,-0.10
2018-02-04T01:04:44.647Z,-0.10
2018-02-04T01:07:12.196Z,0.00
2018-02-04T01:09:39.917Z,-0.10
2018-02-04T01:12:09.234Z,-0.10
2018-02-04T01:14:38.359Z,-0.10
2018-02-04T01:17:06.887Z,0.00
2018-02-04T01:19:35.372Z,-0.10
2018-02-04T01:22:03.687Z,-0.10
2018-02-04T01:24:31.456Z,-0.10
2018-02-04T01:26:59.820Z,0.10
2018-02-04T01:29:28.700Z,0.10
2018-02-04T01:31:57.115Z,0.10
2018-02-04T01:34:25.461Z,0.20
2018-02-04T01:36:53.867Z,0.20
2018-02-04T01:39:21.443Z,0.10
2018-02-04T01:41:49.020Z,0.10
2018-02-04T01:44:16.592Z,0.10
2018-02-04T01:46:45.384Z,0.10
2018-02-04T01:49:13.608Z,0.20
2018-02-04T01:51:42.972Z,0.30
2018-02-04T01:54:10.551Z,0.20
2018-02-04T01:56:38.101Z,0.30
2018-02-04T01:59:06.373Z,0.20
2018-02-04T02:01:34.678Z,0.10
2018-02-04T02:04:02.412Z,0.10
2018-02-04T02:06:30.692Z,0.20
2018-02-04T02:08:58.964Z,0.20
2018-02-04T02:11:26.525Z,0.10
2018-02-04T02:13:55.914Z,0.30
2018-02-04T02:16:24.258Z,0.20
2018-02-04T02:18:53.059Z,0.10
2018-02-04T02:21:21.624Z,0.10
2018-02-04T02:23:49.633Z,0.20
2018-02-04T02:26:17.299Z,0.30
2018-02-04T02:28:44.855Z,0.30
2018-02-04T02:31:12.444Z,0.20
2018-02-04T02:33:40.066Z,0.20
2018-02-04T02:36:07.648Z,0.10
2018-02-04T02:38:36.027Z,0.20
2018-02-04T02:41:03.608Z,0.10
2018-02-04T02:43:32.912Z,0.10
2018-02-04T02:46:02.119Z,0.10
2018-02-04T02:48:29.658Z,0.10
2018-02-04T02:50:57.823Z,0.20
2018-02-04T02:53:26.265Z,0.20
2018-02-04T02:55:55.139Z,0.20
2018-02-04T02:58:22.674Z,0.10
2018-02-04T03:00:51.887Z,0.20
2018-02-04T03:03:21.127Z,0.20
2018-02-04T03:05:49.211Z,0.20
2018-02-04T03:08:17.439Z,0.10
2018-02-04T03:10:46.998Z,0.10
2018-02-04T03:13:17.003Z,0.10
2018-02-04T03:15:45.533Z,0.00
2018-02-04T03:18:13.114Z,0.10
2018-02-04T03:20:40.771Z,0.20
2018-02-04T03:23:08.376Z,0.10
2018-02-04T03:25:35.931Z,0.20
2018-02-04T03:28:06.112Z,0.20
2018-02-04T03:30:33.660Z,0.20
2018-02-04T03:33:01.270Z,0.10
2018-02-04T03:35:36.967Z,0.00
2018-02-04T03:38:14.519Z,0.00
2018-02-04T03:40:42.668Z,0.00
2018-02-04T03:43:11.238Z,0.00
2018-02-04T03:45:40.675Z,0.20
2018-02-04T03:48:08.262Z,0.10
2018-02-04T03:50:36.276Z,0.10
2018-02-04T03:53:05.048Z,0.10
2018-02-04T03:55:32.586Z,0.10
2018-02-04T03:58:00.210Z,0.10
2018-02-04T04:00:28.895Z,0.30
2018-02-04T04:02:56.908Z,0.30
2018-02-04T04:05:24.472Z,0.30
2018-02-04T04:07:53.414Z,0.20
2018-02-04T04:10:21.649Z,0.20
2018-02-04T04:12:50.114Z,0.10
2018-02-04T04:15:18.416Z,0.10
2018-02-04T04:17:46.005Z,0.10
2018-02-04T04:20:14.996Z,0.10
2018-02-04T04:22:42.592Z,0.10
2018-02-04T04:25:10.143Z,0.10
2018-02-04T04:27:38.488Z,0.20
2018-02-04T04:30:07.295Z,0.20
2018-02-04T04:32:35.152Z,0.10
2018-02-04T04:35:02.687Z,0.10
2018-02-04T04:37:31.265Z,0.00
2018-02-04T04:39:58.851Z,0.00
2018-02-04T04:42:27.233Z,0.00
2018-02-04T04:44:54.812Z,0.00
2018-02-04T04:47:23.174Z,0.00
2018-02-04T04:49:51.477Z,0.00
2018-02-04T04:52:19.051Z,0.20
2018-02-04T04:54:46.610Z,0.30
2018-02-04T04:57:15.382Z,0.30
2018-02-04T04:59:44.801Z,0.20
2018-02-04T05:02:14.777Z,0.20
2018-02-04T05:04:42.909Z,0.20
2018-02-04T05:07:10.495Z,0.30
2018-02-04T05:09:38.949Z,0.30
2018-02-04T05:12:07.488Z,0.20
2018-02-04T05:14:35.042Z,0.10
2018-02-04T05:17:04.146Z,0.10
2018-02-04T05:19:32.700Z,0.10
2018-02-04T05:22:00.324Z,0.10
2018-02-04T05:24:27.898Z,0.10
2018-02-04T05:26:56.448Z,0.10
2018-02-04T05:29:24.019Z,-0.10
2018-02-04T05:31:51.556Z,-0.10
2018-02-04T05:34:19.175Z,-0.20
2018-02-04T05:36:47.559Z,-0.20
2018-02-04T05:39:16.123Z,-0.20
2018-02-04T05:41:44.569Z,-0.10
2018-02-04T05:44:12.954Z,0.10
2018-02-04T05:46:40.519Z,0.10
2018-02-04T05:49:08.624Z,0.20
2018-02-04T05:51:37.037Z,0.20
2018-02-04T05:54:04.580Z,0.20
2018-02-04T05:56:34.326Z,0.10
2018-02-04T05:59:01.869Z,0.10
2018-02-04T06:01:30.445Z,0.10
2018-02-04T06:03:58.676Z,0.00
2018-02-04T06:06:27.190Z,0.00
2018-02-04T06:08:54.714Z,0.00
2018-02-04T06:11:22.297Z,0.10
2018-02-04T06:13:50.653Z,0.00
2018-02-04T06:16:18.223Z,-0.10
2018-02-04T06:18:46.751Z,-0.30
2018-02-04T06:21:14.338Z,-0.30
2018-02-04T06:23:43.488Z,-0.40
2018-02-04T06:26:11.607Z,-0.40
2018-02-04T06:28:39.160Z,-0.40
2018-02-04T06:31:08.220Z,-0.30
2018-02-04T06:33:36.527Z,-0.30
2018-02-04T06:36:04.250Z,-0.30
2018-02-04T06:38:32.656Z,-0.30
2018-02-04T06:41:00.232Z,-0.30
2018-02-04T06:43:28.348Z,-0.20
2018-02-04T06:45:57.267Z,-0.30
2018-02-04T06:48:25.272Z,-0.30
2018-02-04T06:50:52.835Z,-0.30
2018-02-04T06:53:20.423Z,-0.40
2018-02-04T06:55:48.804Z,-0.50
2018-02-04T06:58:16.360Z,-0.50
2018-02-04T07:00:44.691Z,-0.40
2018-02-04T07:03:12.328Z,-0.50
2018-02-04T07:05:40.714Z,-0.50
2018-02-04T07:08:09.027Z,-0.40
2018-02-04T07:10:36.591Z,-0.50
2018-02-04T07:13:04.844Z,-0.40
2018-02-04T07:15:33.827Z,-0.30
2018-02-04T07:18:03.047Z,-0.30
2018-02-04T07:20:30.697Z,-0.40
2018-02-04T07:22:59.387Z,-0.30
2018-02-04T07:25:31.767Z,-0.20
2018-02-04T07:28:00.072Z,-0.20
2018-02-04T07:30:29.923Z,-0.20
2018-02-04T07:33:00.309Z,-0.10
2018-02-04T07:35:28.598Z,-0.20
2018-02-04T07:37:57.802Z,-0.30
2018-02-04T07:40:25.917Z,-0.30
2018-02-04T07:42:55.371Z,-0.40
2018-02-04T07:45:23.518Z,-0.30
2018-02-04T07:47:52.951Z,-0.40
2018-02-04T07:50:22.708Z,-0.40
2018-02-04T07:52:51.641Z,-0.40
2018-02-04T07:55:21.640Z,-0.30
2018-02-04T07:57:51.073Z,-0.30
2018-02-04T08:00:21.874Z,-0.30
2018-02-04T08:02:52.664Z,-0.20
2018-02-04T08:05:24.343Z,-0.20
2018-02-04T08:07:52.902Z,-0.20
2018-02-04T08:10:22.331Z,0.00
2018-02-04T08:12:52.180Z,-0.10
2018-02-04T08:15:21.020Z,0.00
2018-02-04T08:17:48.743Z,0.00
2018-02-04T08:20:17.613Z,0.20
2018-02-04T08:22:45.255Z,0.20
2018-02-04T08:25:15.555Z,0.30
2018-02-04T08:27:46.465Z,0.50
2018-02-04T08:30:14.847Z,0.50
2018-02-04T08:32:45.930Z,0.60
2018-02-04T08:35:14.274Z,0.70
2018-02-04T08:37:41.966Z,0.80
2018-02-04T08:40:11.386Z,1.00
2018-02-04T08:42:39.499Z,1.00
2018-02-04T08:45:10.311Z,1.00
2018-02-04T08:47:38.254Z,1.10
2018-02-04T08:50:07.821Z,1.20
2018-02-04T08:52:36.689Z,1.20
2018-02-04T08:55:06.113Z,1.30
2018-02-04T08:57:38.141Z,1.40
2018-02-04T09:00:07.465Z,1.50
2018-02-04T09:02:35.478Z,1.70
2018-02-04T09:05:03.493Z,1.80
2018-02-04T09:07:32.890Z,1.80
2018-02-04T09:10:03.955Z,1.90
2018-02-04T09:12:34.155Z,2.00
2018-02-04T09:15:03.843Z,2.20
2018-02-04T09:17:34.300Z,2.20
2018-02-04T09:20:03.361Z,2.30
2018-02-04T09:22:32.799Z,2.40
2018-02-04T09:25:01.373Z,2.50
2018-02-04T09:27:30.422Z,2.50
2018-02-04T09:29:59.158Z,2.60
2018-02-04T09:32:26.804Z,2.60
2018-02-04T09:34:56.783Z,2.60
2018-02-04T09:37:27.420Z,2.40
2018-02-04T09:40:01.077Z,2.40
2018-02-04T09:42:31.100Z,2.40
2018-02-04T09:45:00.444Z,2.40
2018-02-04T09:47:28.583Z,2.40
2018-02-04T09:49:57.056Z,2.50
2018-02-04T09:52:25.980Z,2.50
2018-02-04T09:54:58.987Z,2.70
2018-02-04T09:57:29.081Z,2.70
2018-02-04T09:59:57.442Z,2.70
2018-02-04T10:02:25.117Z,2.80
2018-02-04T10:04:53.850Z,2.80
2018-02-04T10:07:22.556Z,2.80
2018-02-04T10:09:50.946Z,2.90
2018-02-04T10:12:18.489Z,2.90
2018-02-04T10:14:46.159Z,2.90
2018-02-04T10:17:15.340Z,3.10
2018-02-04T10:19:44.095Z,3.10
2018-02-04T10:22:12.760Z,3.10
2018-02-04T10:24:40.976Z,3.30
2018-02-04T10:27:09.876Z,3.20
2018-02-04T10:29:38.073Z,3.30
2018-02-04T10:32:05.607Z,3.40
2018-02-04T10:34:37.597Z,3.30
2018-02-04T10:37:05.155Z,3.40
2018-02-04T10:39:32.688Z,3.50
2018-02-04T10:42:01.192Z,3.50
2018-02-04T10:44:29.933Z,3.60
2018-02-04T10:46:58.167Z,3.70
2018-02-04T10:49:25.729Z,3.70
2018-02-04T10:52:03.237Z,3.80
2018-02-04T10:54:30.791Z,3.80
2018-02-04T10:57:00.587Z,3.70
2018-02-04T10:59:30.700Z,3.80
2018-02-04T11:02:03.869Z,3.90
2018-02-04T11:04:33.023Z,3.90
2018-02-04T11:07:06.210Z,4.00
2018-02-04T11:09:34.525Z,4.00
2018-02-04T11:12:15.960Z,4.10
2018-02-04T11:14:58.130Z,4.10
2018-02-04T11:17:37.263Z,4.20
2018-02-04T11:20:15.619Z,4.20
2018-02-04T11:22:47.755Z,4.30
2018-02-04T11:25:17.278Z,4.20
2018-02-04T11:27:44.961Z,4.30
2018-02-04T11:30:14.226Z,4.40
2018-02-04T11:32:41.836Z,4.50
2018-02-04T11:35:10.323Z,4.40
2018-02-04T11:37:42.929Z,4.50
2018-02-04T11:40:26.181Z,4.50
2018-02-04T11:42:55.089Z,4.50
2018-02-04T11:45:23.603Z,4.60
2018-02-04T11:47:52.968Z,4.60
2018-02-04T11:50:23.735Z,4.70
2018-02-04T11:52:58.748Z,4.70
2018-02-04T11:55:28.703Z,4.80
2018-02-04T11:57:57.170Z,4.80
2018-02-04T12:00:24.799Z,4.80
2018-02-04T12:03:00.060Z,5.00
2018-02-04T12:05:29.988Z,5.00
2018-02-04T12:07:59.183Z,5.00
2018-02-04T12:10:28.603Z,4.90
2018-02-04T12:12:56.204Z,5.10
2018-02-04T12:15:29.475Z,5.10
2018-02-04T12:18:03.012Z,5.20
2018-02-04T12:20:32.989Z,5.20
2018-02-04T12:23:04.224Z,5.20
2018-02-04T12:25:33.482Z,5.10
2018-02-04T12:28:01.099Z,5.10
2018-02-04T12:30:30.310Z,5.10
2018-02-04T12:32:59.758Z,5.20
2018-02-04T12:35:28.080Z,5.20
2018-02-04T12:37:57.817Z,5.30
2018-02-04T12:40:25.522Z,5.30
2018-02-04T12:42:54.057Z,5.40
2018-02-04T12:45:21.655Z,5.40
2018-02-04T12:47:50.177Z,5.40
2018-02-04T12:50:19.670Z,5.60
2018-02-04T12:52:48.260Z,5.60
2018-02-04T12:55:17.850Z,5.70
2018-02-04T12:57:46.660Z,5.80
2018-02-04T13:00:16.909Z,5.70
2018-02-04T13:02:45.940Z,5.80
2018-02-04T13:05:14.355Z,6.00
2018-02-04T13:07:43.231Z,6.20
2018-02-04T13:10:11.473Z,6.20
2018-02-04T13:12:43.619Z,6.30
2018-02-04T13:15:13.075Z,6.60
2018-02-04T13:17:43.991Z,6.50
2018-02-04T13:20:12.367Z,6.90
2018-02-04T13:22:40.665Z,6.90
2018-02-04T13:25:09.180Z,7.00
2018-02-04T13:27:39.155Z,7.10
2018-02-04T13:30:07.644Z,7.10
2018-02-04T13:32:36.423Z,7.10
2018-02-04T13:35:05.729Z,7.00
2018-02-04T13:37:34.047Z,7.00
2018-02-04T13:40:01.651Z,7.10
2018-02-04T13:42:30.758Z,7.00
2018-02-04T13:44:58.354Z,6.70
2018-02-04T13:47:26.999Z,6.80
2018-02-04T13:49:56.352Z,6.60
2018-02-04T13:52:24.222Z,6.60
2018-02-04T13:54:51.856Z,6.30
2018-02-04T13:57:20.325Z,6.30
2018-02-04T13:59:48.675Z,6.20
2018-02-04T14:02:17.037Z,6.20
2018-02-04T14:04:44.658Z,6.10
2018-02-04T14:07:13.426Z,6.10
2018-02-04T14:09:45.097Z,6.10
2018-02-04T14:12:13.420Z,6.10
2018-02-04T14:14:43.600Z,6.00
2018-02-04T14:17:12.432Z,6.00
2018-02-04T14:19:41.048Z,6.00
2018-02-04T14:22:10.145Z,5.90
2018-02-04T14:24:38.528Z,5.80
2018-02-04T14:27:07.455Z,5.80
2018-02-04T14:29:38.323Z,5.60
2018-02-04T14:32:06.813Z,5.60
2018-02-04T14:34:37.369Z,5.50
2018-02-04T14:37:04.971Z,5.30
2018-02-04T14:39:34.372Z,5.30
2018-02-04T14:42:02.676Z,5.00
2018-02-04T14:44:32.766Z,5.00
2018-02-04T14:47:06.706Z,5.20
2018-02-04T14:49:54.777Z,5.00
2018-02-04T14:55:10.436Z,5.00
2018-02-04T14:57:43.802Z,5.00
2018-02-04T15:00:13.743Z,5.10
2018-02-04T15:02:43.760Z,5.00
2018-02-04T15:05:11.343Z,5.00
2018-02-04T15:07:40.220Z,5.00
2018-02-04T15:10:09.007Z,4.90
2018-02-04T15:12:37.432Z,5.00
2018-02-04T15:15:05.011Z,4.90
2018-02-04T15:17:34.176Z,4.80
2018-02-04T15:20:02.035Z,4.80
2018-02-04T15:22:29.590Z,4.80
2018-02-04T15:24:57.927Z,4.80
2018-02-04T15:27:27.162Z,4.70
2018-02-04T15:29:55.726Z,4.60
2018-02-04T15:32:26.483Z,4.60
2018-02-04T15:34:54.913Z,4.60
2018-02-04T15:37:24.260Z,4.60
2018-02-04T15:39:51.840Z,4.50
2018-02-04T15:42:19.405Z,4.60
2018-02-04T15:44:47.896Z,4.50
2018-02-04T15:47:15.525Z,4.60
2018-02-04T15:49:45.447Z,4.70
2018-02-04T15:52:13.787Z,4.70
2018-02-04T15:54:44.939Z,4.70
2018-02-04T15:57:12.819Z,4.70
2018-02-04T15:59:40.436Z,4.60
2018-02-04T16:02:08.835Z,4.50
2018-02-04T16:04:37.371Z,4.50
2018-02-04T16:07:06.242Z,4.40
2018-02-04T16:09:35.642Z,4.30
2018-02-04T16:12:03.248Z,4.20
2018-02-04T16:14:33.105Z,3.80
2018-02-04T16:17:01.466Z,3.60
2018-02-04T16:19:32.819Z,3.60
2018-02-04T16:22:01.858Z,3.20
2018-02-04T16:24:34.504Z,3.00
2018-02-04T16:27:03.566Z,2.90
2018-02-04T16:29:31.937Z,2.80
2018-02-04T16:31:59.777Z,2.70
2018-02-04T16:34:28.218Z,2.50
2018-02-04T16:36:56.725Z,2.50
2018-02-04T16:39:25.842Z,2.40
2018-02-04T16:41:56.207Z,2.30
2018-02-04T16:44:26.180Z,2.20
2018-02-04T16:46:54.672Z,2.10
2018-02-04T16:49:23.756Z,1.90
2018-02-04T16:51:52.087Z,1.80
2018-02-04T16:54:23.586Z,2.00
2018-02-04T16:56:52.708Z,2.00
2018-02-04T16:59:21.664Z,1.90
2018-02-04T17:01:51.204Z,1.90
2018-02-04T17:04:20.345Z,1.80
2018-02-04T17:06:50.088Z,1.80
2018-02-04T17:09:24.288Z,1.80
2018-02-04T17:11:52.708Z,1.80
2018-02-04T17:14:23.902Z,1.70
2018-02-04T17:16:52.719Z,1.70
2018-02-04T17:19:21.536Z,1.70
2018-02-04T17:21:49.957Z,1.70
2018-02-04T17:24:17.820Z,1.60
2018-02-04T17:26:46.236Z,1.60
2018-02-04T17:29:21.424Z,1.60
2018-02-04T17:31:49.086Z,1.70
2018-02-04T17:34:16.627Z,1.60
2018-02-04T17:36:45.021Z,1.70
2018-02-04T17:39:15.607Z,1.60
2018-02-04T17:41:44.979Z,1.70
2018-02-04T17:44:13.124Z,1.70
2018-02-04T17:46:42.447Z,1.70
2018-02-04T17:49:11.657Z,1.70
2018-02-04T17:51:40.549Z,1.80
2018-02-04T17:54:09.815Z,1.70
2018-02-04T17:56:37.396Z,1.70
2018-02-04T17:59:05.980Z,1.70
2018-02-04T18:01:34.612Z,1.80
2018-02-04T18:04:03.565Z,1.90
2018-02-04T18:06:32.913Z,1.90
2018-02-04T18:09:02.012Z,1.80
2018-02-04T18:11:31.239Z,1.70
2018-02-04T18:14:00.293Z,1.70
2018-02-04T18:16:27.907Z,1.80
2018-02-04T18:18:57.054Z,1.80
2018-02-04T18:21:25.463Z,1.60
2018-02-04T18:23:54.813Z,1.60
2018-02-04T18:26:23.028Z,1.60
2018-02-04T18:28:53.206Z,1.60
2018-02-04T18:31:20.797Z,1.70
2018-02-04T18:33:48.438Z,1.50
2018-02-04T18:36:20.388Z,1.40
2018-02-04T18:38:50.731Z,1.40
2018-02-04T18:41:23.850Z,1.30
2018-02-04T18:43:55.104Z,1.40
2018-02-04T18:46:28.632Z,1.30
2018-02-04T18:48:59.295Z,1.30
2018-02-04T18:51:27.790Z,1.20
2018-02-04T18:53:56.243Z,1.10
2018-02-04T18:56:28.075Z,1.00
2018-02-04T18:58:59.582Z,1.10
2018-02-04T19:01:28.771Z,1.00
2018-02-04T19:03:58.156Z,1.00
2018-02-04T19:06:27.793Z,1.00
2018-02-04T19:08:56.450Z,1.00
2018-02-04T19:11:24.895Z,0.90
2018-02-04T19:13:54.290Z,0.90
2018-02-04T19:16:21.863Z,0.90
2018-02-04T19:18:54.219Z,1.00
2018-02-04T19:21:22.601Z,1.10
2018-02-04T19:23:51.609Z,1.10
2018-02-04T19:26:22.049Z,1.10
2018-02-04T19:28:49.704Z,1.10
2018-02-04T19:31:18.967Z,1.10
2018-02-04T19:33:47.215Z,1.00
2018-02-04T19:36:15.584Z,1.00
2018-02-04T19:38:47.575Z,1.00
2018-02-04T19:41:15.216Z,1.00
2018-02-04T19:43:42.797Z,1.10
2018-02-04T19:46:11.702Z,1.10
2018-02-04T19:48:40.725Z,1.10
2018-02-04T19:51:09.160Z,1.10
2018-02-04T19:53:40.206Z,1.10
2018-02-04T19:56:09.002Z,1.20
2018-02-04T19:58:40.544Z,1.10
2018-02-04T20:01:13.441Z,1.10
2018-02-04T20:03:44.815Z,1.00
2018-02-04T20:06:18.305Z,1.00
2018-02-04T20:08:46.487Z,1.00
2018-02-04T20:11:16.011Z,1.10
2018-02-04T20:13:51.782Z,1.10
2018-02-04T20:16:24.444Z,1.10
2018-02-04T20:18:52.113Z,1.10
2018-02-04T20:21:21.404Z,1.10
2018-02-04T20:23:49.009Z,1.10
2018-02-04T20:26:22.475Z,1.00
2018-02-04T20:28:50.583Z,1.00
2018-02-04T20:31:20.349Z,1.00
2018-02-04T20:34:01.429Z,1.00
2018-02-04T20:36:29.578Z,1.10
2018-02-04T20:38:59.077Z,1.10
2018-02-04T20:41:29.364Z,1.00
2018-02-04T20:43:59.245Z,1.00
2018-02-04T20:46:29.100Z,1.00
2018-02-04T20:48:58.300Z,0.90
2018-02-04T20:51:26.161Z,0.90
2018-02-04T20:53:57.678Z,0.70
2018-02-04T20:56:31.518Z,0.80
2018-02-04T20:58:59.880Z,0.80
2018-02-04T21:01:29.883Z,0.80
2018-02-04T21:03:59.821Z,0.70
2018-02-04T21:06:28.396Z,0.70
2018-02-04T21:08:57.370Z,0.60
2018-02-04T21:11:27.899Z,0.70
2018-02-04T21:13:56.731Z,0.70
2018-02-04T21:16:25.397Z,0.60
2018-02-04T21:18:53.255Z,0.60
2018-02-04T21:21:20.801Z,0.60
2018-02-04T21:23:49.274Z,0.60
2018-02-04T21:26:19.794Z,0.60
2018-02-04T21:28:49.733Z,0.60
2018-02-04T21:31:18.356Z,0.70
2018-02-04T21:33:49.436Z,0.70
2018-02-04T21:36:17.811Z,0.70
2018-02-04T21:38:46.899Z,0.60
2018-02-04T21:41:18.232Z,0.60
2018-02-04T21:43:49.083Z,0.50
2018-02-04T21:46:17.516Z,0.60
2018-02-04T21:48:52.186Z,0.60
2018-02-04T21:51:24.319Z,0.60
2018-02-04T21:53:51.983Z,0.60
2018-02-04T21:56:20.321Z,0.50
2018-02-04T21:58:47.955Z,0.60
2018-02-04T22:01:15.563Z,0.60
2018-02-04T22:03:43.913Z,0.60
2018-02-04T22:06:12.407Z,0.60
2018-02-04T22:08:39.992Z,0.60
2018-02-04T22:11:10.741Z,0.50
2018-02-04T22:13:39.490Z,0.60
2018-02-04T22:16:07.198Z,0.60
2018-02-04T22:18:39.283Z,0.60
2018-02-04T22:21:07.878Z,0.60
2018-02-04T22:23:36.314Z,0.60
2018-02-04T22:26:05.408Z,0.70
2018-02-04T22:28:36.198Z,0.60
2018-02-04T22:31:08.869Z,0.60
2018-02-04T22:33:37.333Z,0.60
2018-02-04T22:36:08.620Z,0.40
2018-02-04T22:38:37.527Z,0.50
2018-02-04T22:41:12.510Z,0.50
2018-02-04T22:43:42.957Z,0.60
2018-02-04T22:46:12.563Z,0.50
2018-02-04T22:48:48.900Z,0.60
2018-02-04T22:51:22.754Z,0.60
2018-02-04T22:53:52.777Z,0.60
2018-02-04T22:56:25.517Z,0.50
2018-02-04T22:58:55.231Z,0.60
2018-02-04T23:01:28.634Z,0.50
2018-02-04T23:06:33.538Z,0.50
2018-02-04T23:09:02.465Z,0.60
2018-02-04T23:11:30.970Z,0.70
2018-02-04T23:14:00.828Z,0.60
2018-02-04T23:16:29.442Z,0.70
2018-02-04T23:18:58.403Z,0.60
2018-02-04T23:21:29.390Z,0.60
2018-02-04T23:27:11.757Z,0.50
2018-02-04T23:29:44.719Z,0.60
2018-02-04T23:32:13.395Z,0.60
2018-02-04T23:34:44.513Z,0.60
2018-02-04T23:37:17.866Z,0.60
2018-02-04T23:39:51.116Z,0.60
2018-02-04T23:42:32.797Z,0.70
2018-02-04T23:45:04.933Z,0.70
2018-02-04T23:47:38.674Z,0.70
2018-02-04T23:50:06.943Z,0.70
2018-02-04T23:52:36.854Z,0.70
2018-02-04T23:55:06.179Z,0.70
2018-02-04T23:57:35.475Z,0.60
